Time;durP1;ratioP1;P1;durP2;ratioP2;P2;SDS_P1;SDS_P2;PMS_P1;PMS_P2;Temp;Humidity;BMP_temperature;BMP_pressure;BME280_temperature;BME280_humidity;BME280_pressure;Samples;Min_cycle;Max_cycle;Signal;HPM_P1;HPM_P2
2023/03/26 00:01:32;;;;;;;3.07;2.50;;;6.30;99.90;;;;;;5074707;28;20638;-79
2023/03/26 00:03:58;;;;;;;3.53;2.60;;;6.40;99.90;;;;;;5074684;28;20177;-81
2023/03/26 00:06:35;;;;;;;3.17;2.27;;;6.30;99.90;;;;;;5074527;28;20175;-79
2023/03/26 00:09:01;;;;;;;2.63;2.43;;;6.20;99.90;;;;;;5074766;28;20160;-78
2023/03/26 00:11:28;;;;;;;2.80;2.33;;;6.10;99.90;;;;;;5075308;28;20588;-80
2023/03/26 00:13:58;;;;;;;5.10;2.07;;;6.10;99.90;;;;;;5074593;28;20171;-81
2023/03/26 00:16:27;;;;;;;2.30;2.20;;;6.10;99.90;;;;;;5074521;28;20169;-79
2023/03/26 00:18:52;;;;;;;2.43;2.23;;;6.10;99.90;;;;;;5074478;28;20223;-78
2023/03/26 00:21:26;;;;;;;6.77;2.20;;;6.20;99.90;;;;;;5074305;28;20975;-79
2023/03/26 00:23:53;;;;;;;2.17;1.97;;;6.10;99.90;;;;;;5074497;28;20157;-78
2023/03/26 00:26:20;;;;;;;2.13;2.03;;;6.10;99.90;;;;;;5074372;28;20181;-78
2023/03/26 00:28:49;;;;;;;1.97;1.87;;;6.00;99.90;;;;;;5056400;28;20242;-80
2023/03/26 00:31:16;;;;;;;5.40;2.87;;;6.10;99.90;;;;;;5074146;28;20175;-80
2023/03/26 00:33:42;;;;;;;2.70;2.60;;;6.20;99.90;;;;;;5056273;28;20215;-80
2023/03/26 00:36:16;;;;;;;4.33;2.10;;;6.10;99.90;;;;;;5074036;28;20200;-79
2023/03/26 00:38:43;;;;;;;4.13;2.33;;;6.10;99.90;;;;;;5074130;28;20200;-79
2023/03/26 00:41:16;;;;;;;3.63;2.30;;;6.00;99.90;;;;;;5074004;28;20253;-79
2023/03/26 00:43:44;;;;;;;2.43;2.33;;;6.10;99.90;;;;;;5056292;28;20633;-80
2023/03/26 00:46:10;;;;;;;2.07;1.97;;;6.10;99.90;;;;;;5073637;28;20272;-81
2023/03/26 00:48:37;;;;;;;3.43;2.20;;;6.00;99.90;;;;;;5074031;28;20180;-81
2023/03/26 00:51:04;;;;;;;2.50;2.30;;;6.00;99.90;;;;;;5074758;28;20538;-81
2023/03/26 00:53:31;;;;;;;2.00;1.90;;;6.00;99.90;;;;;;5057331;28;20640;-81
2023/03/26 00:55:59;;;;;;;2.00;1.90;;;5.90;99.90;;;;;;5055928;28;20639;-78
2023/03/26 00:58:25;;;;;;;2.60;2.20;;;5.90;99.90;;;;;;5074159;28;20177;-80
2023/03/26 01:00:58;;;;;;;2.20;2.10;;;5.80;99.90;;;;;;5084505;28;20212;-79
2023/03/26 01:03:27;;;;;;;1.90;1.80;;;5.80;99.90;;;;;;5068133;28;20193;-81
2023/03/26 01:06:06;;;;;;;2.10;2.00;;;5.70;99.90;;;;;;5074208;28;20184;-78
2023/03/26 01:08:48;;;;;;;2.20;2.00;;;5.70;99.90;;;;;;5078056;28;20196;-78
2023/03/26 01:11:17;;;;;;;2.13;2.03;;;5.50;99.90;;;;;;5079108;28;20170;-81
2023/03/26 01:13:52;;;;;;;2.13;2.00;;;5.50;99.90;;;;;;5081511;28;20179;-78
2023/03/26 01:16:52;;;;;;;2.20;2.03;;;5.40;99.90;;;;;;5056476;28;20251;-78
2023/03/26 01:19:43;;;;;;;2.20;2.10;;;5.40;99.90;;;;;;5073310;28;20535;-77
2023/03/26 01:22:11;;;;;;;2.60;2.03;;;5.40;99.90;;;;;;5073087;28;20155;-77
2023/03/26 01:24:41;;;;;;;2.00;1.90;;;5.40;99.90;;;;;;5073211;28;20171;-78
2023/03/26 01:27:50;;;;;;;1.70;1.60;;;5.40;99.90;;;;;;5074030;28;20187;-78
2023/03/26 01:30:32;;;;;;;2.10;2.00;;;5.40;99.90;;;;;;5073567;28;20254;-79
2023/03/26 01:33:25;;;;;;;1.87;1.77;;;5.40;99.90;;;;;;5073021;28;20165;-77
2023/03/26 01:36:03;;;;;;;1.43;1.43;;;5.50;99.90;;;;;;5072947;28;20188;-78
2023/03/26 01:38:58;;;;;;;1.70;1.70;;;5.60;99.90;;;;;;5072983;28;20194;-78
2023/03/26 01:41:46;;;;;;;2.57;2.00;;;5.60;99.90;;;;;;5072607;28;20203;-79
2023/03/26 01:44:34;;;;;;;2.30;1.97;;;5.60;99.90;;;;;;5054655;28;20172;-79
2023/03/26 01:47:00;;;;;;;1.60;1.50;;;5.60;99.90;;;;;;5072810;28;20163;-79
2023/03/26 01:49:30;;;;;;;1.47;1.30;;;5.50;99.90;;;;;;5072592;28;20315;-79
2023/03/26 01:51:56;;;;;;;1.70;1.60;;;5.60;99.90;;;;;;5054741;28;20219;-78
2023/03/26 01:54:25;;;;;;;3.17;2.07;;;5.60;99.90;;;;;;5072777;28;20169;-79
2023/03/26 01:57:16;;;;;;;2.17;2.07;;;5.60;99.90;;;;;;5072434;28;20167;-80
2023/03/26 01:59:54;;;;;;;1.90;1.80;;;5.60;99.90;;;;;;5072604;28;20231;-78
2023/03/26 02:02:20;;;;;;;1.67;1.57;;;5.60;99.90;;;;;;5072421;28;20247;-78
2023/03/26 02:05:25;;;;;;;1.97;1.83;;;5.50;99.90;;;;;;5071893;28;20261;-79
2023/03/26 02:08:04;;;;;;;1.70;1.60;;;5.50;99.90;;;;;;4971435;28;20961;-80
2023/03/26 02:10:36;;;;;;;2.37;1.50;;;5.60;99.90;;;;;;4972073;28;20245;-80
2023/03/26 02:13:02;;;;;;;2.10;2.00;;;5.50;99.90;;;;;;4971447;28;20170;-80
2023/03/26 02:15:28;;;;;;;2.27;2.10;;;5.60;99.90;;;;;;4971345;28;20215;-79
2023/03/26 02:17:54;;;;;;;2.20;2.10;;;5.60;99.90;;;;;;4971445;28;20212;-80
2023/03/26 02:20:20;;;;;;;3.93;3.50;;;5.60;99.90;;;;;;4971348;28;20726;-80
2023/03/26 02:22:46;;;;;;;3.87;3.57;;;5.60;99.90;;;;;;4971028;28;20183;-78
2023/03/26 02:25:15;;;;;;;9.27;3.80;;;5.60;99.90;;;;;;4971590;28;20183;-81
2023/03/26 02:27:42;;;;;;;4.33;3.93;;;5.70;99.90;;;;;;4972191;28;20271;-80
2023/03/26 02:30:12;;;;;;;4.70;4.30;;;5.60;99.90;;;;;;4971587;28;20222;-82
2023/03/26 02:32:37;;;;;;;7.93;3.60;;;5.50;99.90;;;;;;4971113;28;20188;-79
2023/03/26 02:35:04;;;;;;;4.30;3.90;;;5.40;99.90;;;;;;4971811;28;20212;-81
2023/03/26 02:37:32;;;;;;;3.80;3.50;;;5.20;99.90;;;;;;4972964;28;20199;-78
2023/03/26 02:39:58;;;;;;;4.30;3.83;;;5.20;99.90;;;;;;4971620;28;20578;-78
2023/03/26 02:42:24;;;;;;;4.13;3.83;;;5.20;99.90;;;;;;4979871;28;20228;-79
2023/03/26 02:44:50;;;;;;;3.90;3.60;;;5.10;99.90;;;;;;5064415;28;20230;-80
2023/03/26 02:47:16;;;;;;;5.00;4.37;;;5.00;99.90;;;;;;5092293;28;20640;-80
2023/03/26 02:49:42;;;;;;;5.10;3.93;;;4.80;99.90;;;;;;5092965;28;20535;-80
2023/03/26 02:52:08;;;;;;;4.53;4.13;;;4.70;99.90;;;;;;5094675;28;20176;-79
2023/03/26 02:54:34;;;;;;;5.13;4.10;;;4.60;99.90;;;;;;5094478;28;20176;-80
2023/03/26 02:57:00;;;;;;;5.60;4.40;;;4.40;99.90;;;;;;5104716;28;20171;-81
2023/03/26 02:59:26;;;;;;;4.37;3.97;;;4.40;99.90;;;;;;5109806;28;20229;-79
2023/03/26 03:01:53;;;;;;;4.03;3.73;;;4.20;99.90;;;;;;5095678;28;20177;-80
2023/03/26 03:04:20;;;;;;;4.63;4.13;;;4.10;99.90;;;;;;5091950;28;20231;-80
2023/03/26 03:06:45;;;;;;;4.40;4.00;;;4.00;99.90;;;;;;5092512;28;20206;-81
2023/03/26 03:09:11;;;;;;;5.57;4.23;;;4.10;99.90;;;;;;5092231;28;20660;-81
2023/03/26 03:11:39;;;;;;;3.77;3.37;;;4.20;99.90;;;;;;5092120;28;20177;-82
2023/03/26 03:14:05;;;;;;;3.80;3.40;;;4.10;99.90;;;;;;5091846;28;20200;-80
2023/03/26 03:16:31;;;;;;;3.43;3.13;;;4.10;99.90;;;;;;5095961;28;20533;-82
2023/03/26 03:18:57;;;;;;;3.43;3.13;;;4.20;99.90;;;;;;5097954;28;20212;-78
2023/03/26 03:21:25;;;;;;;3.03;2.70;;;4.20;99.90;;;;;;5097241;28;20182;-81
2023/03/26 03:23:50;;;;;;;2.90;2.70;;;4.30;99.90;;;;;;5095866;28;20249;-79
2023/03/26 03:26:20;;;;;;;3.00;2.90;;;4.50;99.90;;;;;;5095724;28;20200;-79
2023/03/26 03:28:48;;;;;;;2.90;2.70;;;4.60;99.90;;;;;;5095894;28;20178;-78
2023/03/26 03:31:15;;;;;;;2.73;2.53;;;4.70;99.90;;;;;;5095793;28;20223;-79
2023/03/26 03:33:41;;;;;;;3.17;2.93;;;4.80;99.90;;;;;;5095934;28;20173;-78
2023/03/26 03:36:10;;;;;;;2.50;2.30;;;4.70;99.90;;;;;;5094435;28;20201;-79
2023/03/26 03:38:37;;;;;;;2.60;2.40;;;4.70;99.90;;;;;;5095415;28;20168;-77
2023/03/26 03:41:03;;;;;;;2.40;2.20;;;4.70;99.90;;;;;;5095796;28;20265;-78
2023/03/26 03:43:29;;;;;;;2.63;2.43;;;4.60;99.90;;;;;;5095651;28;20178;-79
2023/03/26 03:45:54;;;;;;;2.23;2.07;;;4.60;99.90;;;;;;5078837;28;20635;-79
2023/03/26 03:48:20;;;;;;;2.10;2.00;;;4.60;99.90;;;;;;5075188;28;20177;-79
2023/03/26 03:50:46;;;;;;;2.43;2.23;;;4.50;99.90;;;;;;5075042;28;20175;-78
2023/03/26 03:53:14;;;;;;;3.27;2.80;;;4.50;99.90;;;;;;5074846;28;20237;-82
2023/03/26 03:55:41;;;;;;;2.70;2.50;;;4.50;99.90;;;;;;5074697;28;20221;-79
2023/03/26 03:58:08;;;;;;;3.20;2.93;;;4.30;99.90;;;;;;5075729;28;20183;-79
2023/03/26 04:00:37;;;;;;;2.30;2.20;;;4.40;99.90;;;;;;5077758;28;20207;-78
2023/03/26 04:03:05;;;;;;;2.40;2.27;;;4.40;99.90;;;;;;5075019;28;20165;-80
2023/03/26 04:05:31;;;;;;;2.77;2.40;;;4.30;99.90;;;;;;5074468;28;20176;-79
2023/03/26 04:07:58;;;;;;;2.03;1.93;;;4.30;99.90;;;;;;5056805;28;20167;-79
2023/03/26 04:10:24;;;;;;;2.50;2.30;;;4.30;99.90;;;;;;5076506;28;20175;-79
2023/03/26 04:12:50;;;;;;;2.30;2.10;;;4.10;99.90;;;;;;5057670;28;20700;-78
2023/03/26 04:15:16;;;;;;;2.00;1.90;;;4.20;99.90;;;;;;5074357;28;20269;-79
2023/03/26 04:17:41;;;;;;;2.40;2.20;;;4.30;99.90;;;;;;5074460;28;20250;-80
2023/03/26 04:20:13;;;;;;;2.00;1.90;;;4.30;99.90;;;;;;5074462;28;20298;-79
2023/03/26 04:22:41;;;;;;;1.83;1.83;;;4.40;99.90;;;;;;5074664;28;20626;-79
2023/03/26 04:25:07;;;;;;;2.17;2.07;;;4.50;99.90;;;;;;5074048;28;20177;-81
2023/03/26 04:27:36;;;;;;;1.80;1.80;;;4.50;99.90;;;;;;5073972;28;20172;-79
2023/03/26 04:30:05;;;;;;;1.97;1.87;;;4.50;99.90;;;;;;5084191;28;20695;-79
2023/03/26 04:32:34;;;;;;;1.80;1.70;;;4.20;99.90;;;;;;5064255;28;20196;-78
2023/03/26 04:35:02;;;;;;;2.13;2.03;;;4.20;99.90;;;;;;5095007;28;20191;-78
2023/03/26 04:37:46;;;;;;;2.07;1.97;;;4.20;99.90;;;;;;5094888;28;20174;-80
2023/03/26 04:40:20;;;;;;;2.00;1.90;;;4.30;99.90;;;;;;5094784;28;20208;-79
2023/03/26 04:42:47;;;;;;;1.80;1.70;;;4.30;99.90;;;;;;5095031;28;20175;-79
2023/03/26 04:45:15;;;;;;;1.60;1.60;;;4.20;99.90;;;;;;5094652;28;20222;-79
2023/03/26 04:47:41;;;;;;;1.70;1.60;;;4.30;99.90;;;;;;5095921;28;20194;-80
2023/03/26 04:50:10;;;;;;;2.87;2.03;;;4.30;99.90;;;;;;5103717;28;20171;-80
2023/03/26 04:52:36;;;;;;;2.33;2.13;;;4.50;99.90;;;;;;5110565;28;20196;-81
2023/03/26 04:55:05;;;;;;;2.10;2.00;;;4.50;99.90;;;;;;5104553;28;20189;-80
2023/03/26 04:57:36;;;;;;;1.90;1.80;;;4.30;99.90;;;;;;5097033;28;20303;-79
2023/03/26 05:00:17;;;;;;;2.00;1.90;;;4.30;99.90;;;;;;5095750;28;20197;-79
2023/03/26 05:02:43;;;;;;;2.27;1.80;;;4.30;99.90;;;;;;5094529;28;20203;-79
2023/03/26 05:05:10;;;;;;;1.80;1.70;;;4.40;99.90;;;;;;5093731;28;20256;-78
2023/03/26 05:07:37;;;;;;;2.00;1.90;;;4.50;99.90;;;;;;5093884;28;20270;-80
2023/03/26 05:10:04;;;;;;;1.83;1.73;;;4.60;99.90;;;;;;5095118;28;20178;-79
2023/03/26 05:12:29;;;;;;;2.10;2.00;;;4.80;99.90;;;;;;5094782;28;20182;-79
2023/03/26 05:14:56;;;;;;;1.80;1.70;;;4.80;99.90;;;;;;5093973;28;20315;-77
2023/03/26 05:17:23;;;;;;;2.60;2.40;;;4.80;99.90;;;;;;5093504;28;20635;-78
2023/03/26 05:19:50;;;;;;;1.87;1.80;;;4.90;99.90;;;;;;5093624;28;20665;-79
2023/03/26 05:22:17;;;;;;;2.43;1.67;;;4.90;99.90;;;;;;5093625;28;20317;-80
2023/03/26 05:24:43;;;;;;;2.40;2.30;;;4.90;99.90;;;;;;5093454;28;20715;-80
2023/03/26 05:27:13;;;;;;;1.80;1.70;;;4.80;99.90;;;;;;5093253;28;20284;-79
2023/03/26 05:29:39;;;;;;;3.83;1.43;;;4.80;99.90;;;;;;5093429;28;20168;-77
2023/03/26 05:32:06;;;;;;;2.00;1.90;;;4.90;99.90;;;;;;5093627;28;20170;-79
2023/03/26 05:34:32;;;;;;;1.93;1.83;;;5.00;99.90;;;;;;5093728;28;20695;-78
2023/03/26 05:36:57;;;;;;;1.60;1.50;;;4.90;99.90;;;;;;5093046;28;20170;-79
2023/03/26 05:39:25;;;;;;;1.53;1.53;;;4.90;99.90;;;;;;5094488;28;20201;-80
2023/03/26 05:41:51;;;;;;;2.20;1.80;;;4.90;99.90;;;;;;5093535;28;20166;-80
2023/03/26 05:44:18;;;;;;;1.90;1.70;;;5.00;99.90;;;;;;5094161;28;20167;-81
2023/03/26 05:46:44;;;;;;;1.80;1.70;;;5.00;99.90;;;;;;5093312;28;20163;-78
2023/03/26 05:49:10;;;;;;;2.00;1.90;;;5.10;99.90;;;;;;5093171;28;20209;-79
2023/03/26 05:51:35;;;;;;;3.03;1.60;;;5.10;99.90;;;;;;5093126;28;20630;-81
2023/03/26 05:54:01;;;;;;;1.63;1.53;;;5.20;99.90;;;;;;5093070;28;20204;-80
2023/03/26 05:56:27;;;;;;;2.73;1.80;;;5.20;99.90;;;;;;5074342;28;20206;-81
2023/03/26 05:58:55;;;;;;;1.90;1.80;;;5.40;99.90;;;;;;5092999;28;20168;-79
2023/03/26 06:01:21;;;;;;;1.70;1.63;;;5.50;99.90;;;;;;5093140;28;20170;-79
2023/03/26 06:03:47;;;;;;;2.00;1.90;;;5.50;99.90;;;;;;5092971;28;20273;-79
2023/03/26 06:06:19;;;;;;;2.10;1.70;;;5.50;99.90;;;;;;5092562;28;20178;-80
2023/03/26 06:08:50;;;;;;;1.50;1.50;;;5.40;99.90;;;;;;5093072;28;20757;-79
2023/03/26 06:11:19;;;;;;;2.27;1.70;;;5.60;99.90;;;;;;5094051;28;20253;-79
2023/03/26 06:13:46;;;;;;;4.40;2.07;;;5.70;99.90;;;;;;5093212;28;20263;-77
2023/03/26 06:16:13;;;;;;;2.30;2.10;;;5.80;99.90;;;;;;5092687;28;20651;-79
2023/03/26 06:18:39;;;;;;;2.70;2.50;;;5.90;99.90;;;;;;5092799;28;20185;-78
2023/03/26 06:21:07;;;;;;;2.77;2.50;;;5.90;99.90;;;;;;5092948;28;20229;-78
2023/03/26 06:23:33;;;;;;;3.23;3.00;;;6.00;99.90;;;;;;5092978;28;20661;-79
2023/03/26 06:25:59;;;;;;;3.30;3.10;;;6.10;99.90;;;;;;5092659;28;20189;-78
2023/03/26 06:28:25;;;;;;;3.70;3.40;;;6.20;99.90;;;;;;5074296;28;20173;-79
2023/03/26 06:30:51;;;;;;;3.07;2.87;;;6.20;99.90;;;;;;5099531;28;20175;-79
2023/03/26 06:33:17;;;;;;;3.07;2.87;;;6.30;99.90;;;;;;5095398;28;20216;-79
2023/03/26 06:35:44;;;;;;;3.13;2.87;;;6.30;99.90;;;;;;5092678;28;20230;-79
2023/03/26 06:38:11;;;;;;;3.27;3.07;;;6.40;99.90;;;;;;5093077;28;20166;-79
2023/03/26 06:40:37;;;;;;;3.50;3.20;;;6.30;99.90;;;;;;5094412;28;20666;-79
2023/03/26 06:43:03;;;;;;;4.70;3.53;;;6.30;99.90;;;;;;5098188;28;20163;-78
2023/03/26 06:45:31;;;;;;;3.50;3.20;;;6.40;99.90;;;;;;5107758;28;20222;-79
2023/03/26 06:47:57;;;;;;;3.03;2.83;;;6.40;99.90;;;;;;5108463;28;20169;-79
2023/03/26 06:50:22;;;;;;;4.80;4.40;;;6.60;99.90;;;;;;5094118;28;20510;-78
2023/03/26 06:52:49;;;;;;;4.07;3.70;;;6.70;99.90;;;;;;5093387;28;20181;-79
2023/03/26 06:55:15;;;;;;;4.40;4.10;;;6.80;99.90;;;;;;5092599;28;20167;-78
2023/03/26 06:57:44;;;;;;;3.77;3.47;;;6.70;99.90;;;;;;5091976;28;20231;-79
2023/03/26 07:00:11;;;;;;;5.60;4.20;;;6.60;99.90;;;;;;5092340;28;20226;-77
2023/03/26 07:02:37;;;;;;;4.73;4.20;;;6.50;99.90;;;;;;5093137;28;20166;-78
2023/03/26 07:05:03;;;;;;;4.10;3.27;;;6.50;99.90;;;;;;5092779;28;20176;-78
2023/03/26 07:07:28;;;;;;;3.57;3.30;;;6.60;99.90;;;;;;5093580;28;20178;-79
2023/03/26 07:09:54;;;;;;;4.33;3.93;;;6.70;99.90;;;;;;5092762;28;20655;-80
2023/03/26 07:12:21;;;;;;;5.60;3.90;;;6.70;99.90;;;;;;5092267;28;20177;-78
2023/03/26 07:14:47;;;;;;;4.03;3.70;;;6.70;99.90;;;;;;5091768;28;20163;-79
2023/03/26 07:17:12;;;;;;;4.80;4.33;;;6.80;99.90;;;;;;5092041;28;20245;-77
2023/03/26 07:19:38;;;;;;;4.47;4.07;;;6.90;99.90;;;;;;5091961;28;20202;-81
2023/03/26 07:22:04;;;;;;;4.20;3.87;;;6.90;99.90;;;;;;5092625;28;20648;-79
2023/03/26 07:24:30;;;;;;;4.00;3.70;;;7.00;99.90;;;;;;5092790;28;20187;-78
2023/03/26 07:27:08;;;;;;;3.43;3.13;;;7.10;99.90;;;;;;5073702;28;20181;-78
2023/03/26 07:30:01;;;;;;;3.47;3.17;;;7.10;99.90;;;;;;5091932;28;20163;-77
2023/03/26 07:32:39;;;;;;;3.80;3.20;;;7.20;99.90;;;;;;5092105;28;20644;-79
2023/03/26 07:35:30;;;;;;;4.13;3.50;;;7.20;99.90;;;;;;5091646;28;20210;-78
2023/03/26 07:38:01;;;;;;;3.20;3.00;;;7.40;99.90;;;;;;5091542;28;20172;-80
2023/03/26 07:41:04;;;;;;;3.47;3.17;;;7.70;99.90;;;;;;5091656;28;20219;-78
2023/03/26 07:43:42;;;;;;;2.90;2.70;;;8.00;99.90;;;;;;5044412;28;20199;-79
2023/03/26 07:46:12;;;;;;;3.00;2.80;;;8.10;99.90;;;;;;5091601;28;20292;-80
2023/03/26 07:48:42;;;;;;;2.83;2.63;;;8.10;99.90;;;;;;5073527;28;20571;-79
2023/03/26 07:51:09;;;;;;;2.80;2.60;;;8.00;99.90;;;;;;5094425;28;20169;-80
2023/03/26 07:53:35;;;;;;;2.83;2.63;;;7.90;99.90;;;;;;5092999;28;20165;-79
2023/03/26 07:56:07;;;;;;;3.90;3.50;;;7.90;99.90;;;;;;5091467;28;20177;-79
2023/03/26 07:59:05;;;;;;;2.63;2.43;;;8.00;99.90;;;;;;5091939;28;20180;-79
2023/03/26 08:01:44;;;;;;;2.40;2.20;;;8.10;99.90;;;;;;5092717;28;20215;-78
2023/03/26 08:04:26;;;;;;;2.20;2.10;;;7.90;99.90;;;;;;5095134;28;20165;-78
2023/03/26 08:07:15;;;;;;;2.37;2.27;;;8.00;99.90;;;;;;5094937;28;20250;-80
2023/03/26 08:09:50;;;;;;;2.43;2.23;;;8.10;99.90;;;;;;5061458;28;20192;-78
2023/03/26 08:12:21;;;;;;;2.03;1.93;;;8.20;99.90;;;;;;5077329;28;20187;-80
2023/03/26 08:15:11;;;;;;;2.27;2.10;;;8.30;99.90;;;;;;5076673;28;20543;-79
2023/03/26 08:17:49;;;;;;;2.20;2.10;;;8.30;99.90;;;;;;5095220;28;20345;-78
2023/03/26 08:20:30;;;;;;;2.53;2.20;;;8.50;99.90;;;;;;5094952;28;20397;-79
2023/03/26 08:23:34;;;;;;;2.67;2.47;;;8.80;99.90;;;;;;5095279;28;20163;-80
2023/03/26 08:26:26;;;;;;;3.67;2.73;;;9.00;99.90;;;;;;5079242;28;20318;-79
2023/03/26 08:29:25;;;;;;;2.27;2.17;;;9.20;99.90;;;;;;5081005;28;20189;-79
2023/03/26 08:31:53;;;;;;;2.47;2.27;;;9.30;99.90;;;;;;5096377;28;20165;-79
2023/03/26 08:34:19;;;;;;;2.50;2.30;;;9.30;99.90;;;;;;5095685;28;20169;-77
2023/03/26 08:36:45;;;;;;;2.47;2.30;;;9.40;99.90;;;;;;5097084;28;20200;-78
2023/03/26 08:39:11;;;;;;;2.77;2.57;;;9.50;99.90;;;;;;5108804;28;20198;-78
2023/03/26 08:42:15;;;;;;;3.37;3.07;;;9.70;99.90;;;;;;5100722;28;20181;-78
2023/03/26 08:45:16;;;;;;;2.83;2.70;;;9.90;99.90;;;;;;5067319;28;20220;-79
2023/03/26 08:48:12;;;;;;;3.30;2.60;;;10.00;99.90;;;;;;5097211;28;20179;-79
2023/03/26 08:51:22;;;;;;;2.50;2.30;;;10.20;99.90;;;;;;5093610;28;20228;-77
2023/03/26 08:54:11;;;;;;;3.60;3.30;;;10.30;99.90;;;;;;5106917;27;20213;-80
2023/03/26 08:57:04;;;;;;;4.57;4.17;;;10.50;99.90;;;;;;5093264;28;20249;-78
2023/03/26 08:59:44;;;;;;;5.93;4.70;;;10.70;99.90;;;;;;5094669;28;20682;-79
2023/03/26 09:02:32;;;;;;;5.87;4.50;;;10.90;99.90;;;;;;5094913;28;20168;-78
2023/03/26 09:05:25;;;;;;;4.07;3.60;;;11.00;99.90;;;;;;5094514;28;20170;-79
2023/03/26 09:08:25;;;;;;;3.73;3.43;;;11.10;99.90;;;;;;5112717;28;20184;-79
2023/03/26 09:10:58;;;;;;;4.20;3.53;;;11.30;99.90;;;;;;5115162;28;20158;-79
2023/03/26 09:13:36;;;;;;;5.90;2.77;;;11.40;99.90;;;;;;5114904;28;20159;-81
2023/03/26 09:16:16;;;;;;;3.13;2.93;;;11.50;99.90;;;;;;5114654;28;20158;-79
2023/03/26 09:19:13;;;;;;;2.70;2.50;;;11.70;99.90;;;;;;5114718;28;20241;-80
2023/03/26 09:22:07;;;;;;;4.40;2.70;;;11.80;99.90;;;;;;5113441;28;20211;-81
2023/03/26 09:24:55;;;;;;;2.67;2.43;;;11.90;99.90;;;;;;5114770;28;20170;-78
2023/03/26 09:27:38;;;;;;;2.40;2.30;;;12.10;99.30;;;;;;5114558;28;20616;-80
2023/03/26 09:30:25;;;;;;;3.23;2.63;;;12.20;99.10;;;;;;5116399;28;20171;-82
2023/03/26 09:33:30;;;;;;;2.80;2.60;;;12.20;98.80;;;;;;5118297;28;20210;-79
2023/03/26 09:36:40;;;;;;;3.10;2.80;;;12.10;99.10;;;;;;5113789;28;20163;-80
2023/03/26 09:39:15;;;;;;;3.70;3.40;;;12.10;98.90;;;;;;5113759;28;20285;-81
2023/03/26 09:42:10;;;;;;;3.20;2.90;;;12.10;99.30;;;;;;5113548;28;20155;-78
2023/03/26 09:45:07;;;;;;;6.00;4.00;;;12.40;98.90;;;;;;5067198;28;20229;-82
2023/03/26 09:47:53;;;;;;;5.10;4.70;;;12.50;98.70;;;;;;5114202;28;20176;-78
2023/03/26 09:50:21;;;;;;;3.37;3.17;;;12.70;98.40;;;;;;5114118;28;20209;-79
2023/03/26 09:52:50;;;;;;;3.53;2.90;;;12.80;98.20;;;;;;5112705;28;20177;-80
2023/03/26 09:55:28;;;;;;;2.60;2.50;;;12.90;97.90;;;;;;5114313;28;20197;-80
2023/03/26 09:58:48;;;;;;;2.57;2.37;;;13.00;97.50;;;;;;5098092;28;20253;-79
2023/03/26 10:01:23;;;;;;;2.60;2.40;;;13.00;96.60;;;;;;4993047;28;20230;-79
2023/03/26 10:03:52;;;;;;;3.20;2.97;;;13.00;96.50;;;;;;5081349;28;20194;-80
2023/03/26 10:06:25;;;;;;;2.90;2.70;;;13.00;96.80;;;;;;5092565;28;20199;-80
2023/03/26 10:08:57;;;;;;;4.00;3.10;;;13.10;96.50;;;;;;5091552;28;20162;-80
2023/03/26 10:11:45;;;;;;;2.70;2.50;;;13.20;96.70;;;;;;5091861;28;20267;-77
2023/03/26 10:14:37;;;;;;;4.80;2.50;;;13.30;97.40;;;;;;5092905;28;20162;-82
2023/03/26 10:17:41;;;;;;;5.90;5.40;;;13.50;97.30;;;;;;5096919;28;20162;-81
2023/03/26 10:20:37;;;;;;;4.73;3.17;;;13.60;97.30;;;;;;5092666;28;20202;-78
2023/03/26 10:23:32;;;;;;;2.63;2.50;;;13.80;96.70;;;;;;5092720;28;20676;-79
2023/03/26 10:26:36;;;;;;;2.27;1.80;;;13.90;96.90;;;;;;5094083;28;20174;-78
2023/03/26 10:29:03;;;;;;;2.33;2.20;;;14.00;96.80;;;;;;5037218;28;20190;-79
2023/03/26 10:31:56;;;;;;;2.00;1.90;;;13.90;95.90;;;;;;5040718;28;20711;-78
2023/03/26 10:34:40;;;;;;;1.97;1.87;;;13.80;95.40;;;;;;5045819;28;20268;-80
2023/03/26 10:37:44;;;;;;;1.97;1.87;;;13.90;95.90;;;;;;5044917;28;20661;-77
2023/03/26 10:40:19;;;;;;;2.33;2.17;;;14.00;95.80;;;;;;5034686;28;20288;-79
2023/03/26 10:43:00;;;;;;;1.97;1.90;;;14.20;95.70;;;;;;5034113;28;20175;-80
2023/03/26 10:45:44;;;;;;;1.90;1.80;;;14.20;95.50;;;;;;5031919;28;20232;-80
2023/03/26 10:48:33;;;;;;;2.07;1.83;;;14.30;95.20;;;;;;5030668;28;20526;-81
2023/03/26 10:51:17;;;;;;;1.83;1.80;;;14.40;94.70;;;;;;5011114;28;20195;-79
2023/03/26 10:53:52;;;;;;;1.73;1.67;;;14.40;95.00;;;;;;5029520;28;20610;-78
2023/03/26 10:56:26;;;;;;;1.80;1.70;;;14.60;95.40;;;;;;5029362;28;20172;-79
2023/03/26 10:58:55;;;;;;;2.13;1.90;;;14.80;95.90;;;;;;5036613;28;20164;-78
2023/03/26 11:01:42;;;;;;;1.80;1.70;;;15.00;95.80;;;;;;5091639;28;20182;-78
2023/03/26 11:04:27;;;;;;;1.80;1.80;;;14.90;95.40;;;;;;5090504;28;20567;-80
2023/03/26 11:07:07;;;;;;;2.10;2.00;;;15.00;95.20;;;;;;5091641;28;20582;-79
2023/03/26 11:10:15;;;;;;;1.97;1.87;;;15.20;95.20;;;;;;5092237;28;20194;-78
2023/03/26 11:13:07;;;;;;;2.03;1.93;;;15.30;95.40;;;;;;5031441;28;20591;-81
2023/03/26 11:15:36;;;;;;;2.20;2.10;;;15.40;95.60;;;;;;5011140;28;20553;-79
2023/03/26 11:18:31;;;;;;;2.07;1.97;;;15.50;94.80;;;;;;5029345;28;20259;-78
2023/03/26 11:21:10;;;;;;;1.90;1.90;;;15.50;94.90;;;;;;5021938;28;20232;-79
2023/03/26 11:23:44;;;;;;;3.73;2.10;;;15.50;94.50;;;;;;5029326;28;20251;-78
2023/03/26 11:26:22;;;;;;;2.27;2.03;;;15.40;94.40;;;;;;5028944;28;20219;-78
2023/03/26 11:29:25;;;;;;;1.57;1.57;;;15.50;94.60;;;;;;5029202;28;20239;-76
2023/03/26 11:32:16;;;;;;;1.93;1.83;;;15.50;95.00;;;;;;5029011;28;20233;-79
2023/03/26 11:35:01;;;;;;;2.77;2.17;;;15.50;94.90;;;;;;5029086;28;20181;-78
2023/03/26 11:37:51;;;;;;;2.03;1.93;;;15.50;94.50;;;;;;5016127;28;20661;-78
2023/03/26 11:40:26;;;;;;;2.30;2.20;;;15.40;94.30;;;;;;5032729;28;21119;-79
2023/03/26 11:42:59;;;;;;;2.13;2.03;;;15.20;94.70;;;;;;5032697;28;20267;-80
2023/03/26 11:45:29;;;;;;;2.27;2.17;;;15.10;94.10;;;;;;5034510;28;20254;-77
2023/03/26 11:48:26;;;;;;;2.10;2.00;;;15.10;94.40;;;;;;5094216;28;20537;-77
2023/03/26 11:51:11;;;;;;;2.13;2.03;;;15.10;94.40;;;;;;5085046;28;20196;-76
2023/03/26 11:53:38;;;;;;;3.13;2.27;;;15.10;94.60;;;;;;5098684;28;20160;-79
2023/03/26 11:56:35;;;;;;;3.17;2.00;;;14.90;94.50;;;;;;5095918;28;20209;-79
2023/03/26 11:59:37;;;;;;;2.60;2.40;;;15.00;95.10;;;;;;5095301;28;20164;-79
2023/03/26 12:02:03;;;;;;;2.13;2.03;;;15.10;95.30;;;;;;5097211;28;20166;-78
2023/03/26 12:04:44;;;;;;;2.70;2.60;;;15.20;94.90;;;;;;5095197;28;20614;-77
2023/03/26 12:07:19;;;;;;;2.47;2.37;;;15.30;95.20;;;;;;5095105;28;20175;-77
2023/03/26 12:09:54;;;;;;;3.73;2.60;;;15.40;95.30;;;;;;5094999;28;20625;-78
2023/03/26 12:12:25;;;;;;;2.37;2.27;;;15.60;94.60;;;;;;5093350;28;20644;-80
2023/03/26 12:14:52;;;;;;;1.87;1.87;;;15.70;95.00;;;;;;5094667;28;20166;-78
2023/03/26 12:17:31;;;;;;;2.23;2.13;;;15.80;95.10;;;;;;5093648;28;20279;-77
2023/03/26 12:19:57;;;;;;;2.23;2.13;;;15.90;94.80;;;;;;5093381;28;20301;-78
2023/03/26 12:22:32;;;;;;;2.73;2.17;;;15.80;95.10;;;;;;5093903;28;20216;-77
2023/03/26 12:25:16;;;;;;;2.17;2.07;;;16.00;95.50;;;;;;5096235;28;20584;-77
2023/03/26 12:28:11;;;;;;;2.20;2.10;;;16.20;95.60;;;;;;5104339;28;20211;-79
2023/03/26 12:30:40;;;;;;;2.40;2.30;;;16.30;94.90;;;;;;5106511;28;20174;-79
2023/03/26 12:33:24;;;;;;;2.80;2.60;;;16.40;95.20;;;;;;5097239;28;20224;-79
2023/03/26 12:35:51;;;;;;;2.80;2.60;;;16.50;95.10;;;;;;5096741;28;20180;-80
2023/03/26 12:38:34;;;;;;;2.30;2.20;;;16.70;94.90;;;;;;5097380;28;20638;-81
2023/03/26 12:41:14;;;;;;;2.70;2.50;;;16.70;95.30;;;;;;5095074;28;20201;-81
2023/03/26 12:43:41;;;;;;;2.23;2.13;;;16.70;94.90;;;;;;5092973;28;20626;-81
2023/03/26 12:46:34;;;;;;;1.93;1.93;;;16.90;94.90;;;;;;5076280;28;20240;-80
2023/03/26 12:49:05;;;;;;;2.40;2.30;;;16.80;95.00;;;;;;5055462;28;20171;-79
2023/03/26 12:51:45;;;;;;;2.80;2.27;;;16.80;95.30;;;;;;5074231;28;20157;-80
2023/03/26 12:54:15;;;;;;;2.67;2.47;;;16.90;95.50;;;;;;5062153;28;20182;-80
2023/03/26 12:57:01;;;;;;;2.83;2.47;;;17.00;95.30;;;;;;5073860;28;20623;-78
2023/03/26 12:59:46;;;;;;;2.20;2.10;;;17.20;95.20;;;;;;5072359;28;20203;-79
2023/03/26 13:02:45;;;;;;;2.50;2.40;;;17.30;95.00;;;;;;5073730;28;20167;-77
2023/03/26 13:05:31;;;;;;;2.90;2.70;;;17.40;94.20;;;;;;5073147;28;20168;-78
2023/03/26 13:08:35;;;;;;;3.00;2.80;;;17.30;94.90;;;;;;5073565;28;20177;-79
2023/03/26 13:11:35;;;;;;;2.63;2.43;;;17.00;94.90;;;;;;5072860;28;20244;-80
2023/03/26 13:14:20;;;;;;;3.43;3.17;;;16.90;94.60;;;;;;4972032;28;20186;-79
2023/03/26 13:17:13;;;;;;;2.53;2.33;;;16.60;95.30;;;;;;4955932;28;20202;-78
2023/03/26 13:19:52;;;;;;;2.60;2.40;;;16.60;95.70;;;;;;4972430;28;20242;-79
2023/03/26 13:22:37;;;;;;;2.80;2.70;;;16.50;95.50;;;;;;4956363;28;20269;-79
2023/03/26 13:25:29;;;;;;;2.30;2.20;;;16.40;95.30;;;;;;4973508;28;20178;-81
2023/03/26 13:28:10;;;;;;;2.43;2.33;;;16.50;95.00;;;;;;4972839;28;20221;-80
2023/03/26 13:30:40;;;;;;;3.93;3.47;;;16.60;95.10;;;;;;4972439;28;20192;-80
2023/03/26 13:33:11;;;;;;;3.37;3.07;;;16.60;95.10;;;;;;4972577;28;20645;-77
2023/03/26 13:35:49;;;;;;;2.80;2.60;;;16.80;95.20;;;;;;4956162;28;20253;-78